EWG1VH EDDH-LOWS
Flight info
| Callsign | EWG1VH |
|---|---|
| Flight time | 1h 0m |
| Altitude | 30000 |
| Route | AMLUH2G AMLUH M852 DENIX DCT ZUCKA DCT SODRO T703 ARBAX T108 OSTES T700 BADIT BADIT2R |
| Aircraft | A320/M-SDE3FGHIRWY/LB1 |
Departure
| Time | 2026-04-22 18:23 |
|---|---|
| Airport | Hamburg Helmut Schmidt Airport (EDDH) |
Arrival
| Time | 2026-04-22 19:23 |
|---|---|
| Airport | Salzburg Airport (LOWS) |
| Time | Latitude | Longitude | Altitude | Speed | Heading |
|---|---|---|---|---|---|
| 2026-04-22 18:01 | 53.63075 | 10.00375 | 51 ft | 0 kts | 99° |
| 2026-04-22 18:16 | 53.63075 | 10.00374 | 51 ft | 2 kts | 99° |
| 2026-04-22 18:16 | 53.63078 | 10.00346 | 51 ft | 2 kts | 99° |
| 2026-04-22 18:17 | 53.63081 | 10.00317 | 48 ft | 2 kts | 99° |
| 2026-04-22 18:17 | 53.63087 | 10.00291 | 46 ft | 2 kts | 159° |
| 2026-04-22 18:17 | 53.63093 | 10.00287 | 48 ft | 0 kts | 184° |
| 2026-04-22 18:19 | 53.63089 | 10.00286 | 45 ft | 4 kts | 190° |
| 2026-04-22 18:19 | 53.63032 | 10.00223 | 51 ft | 16 kts | 215° |
| 2026-04-22 18:20 | 53.62914 | 10.00097 | 50 ft | 15 kts | 212° |
| 2026-04-22 18:20 | 53.62845 | 9.99964 | 50 ft | 13 kts | 243° |
| 2026-04-22 18:20 | 53.62839 | 9.99943 | 50 ft | 0 kts | 243° |
| 2026-04-22 18:21 | 53.62821 | 9.99884 | 50 ft | 10 kts | 243° |
| 2026-04-22 18:21 | 53.62837 | 9.99771 | 48 ft | 12 kts | 327° |
| 2026-04-22 18:21 | 53.62870 | 9.99741 | 49 ft | 0 kts | 332° |
| 2026-04-22 18:22 | 53.62886 | 9.99727 | 49 ft | 12 kts | 332° |
| 2026-04-22 18:22 | 53.63179 | 9.99472 | 50 ft | 83 kts | 333° |
| 2026-04-22 18:22 | 53.63866 | 9.98879 | 47 ft | 136 kts | 333° |
| 2026-04-22 18:23 | 53.64814 | 9.98097 | 335 ft | 158 kts | 332° |
| 2026-04-22 18:23 | 53.65824 | 9.97284 | 987 ft | 161 kts | 331° |
| 2026-04-22 18:23 | 53.66863 | 9.96376 | 1416 ft | 179 kts | 331° |
| 2026-04-22 18:24 | 53.69394 | 9.94675 | 2117 ft | 206 kts | 356° |
| 2026-04-22 18:24 | 53.70873 | 9.94692 | 2738 ft | 219 kts | 359° |
| 2026-04-22 18:24 | 53.73707 | 9.96923 | 3993 ft | 259 kts | 57° |
| 2026-04-22 18:25 | 53.74383 | 9.99858 | 4627 ft | 278 kts | 73° |
| 2026-04-22 18:25 | 53.74524 | 10.02066 | 4900 ft | 297 kts | 91° |
| 2026-04-22 18:25 | 53.73863 | 10.05422 | 5072 ft | 308 kts | 121° |
| 2026-04-22 18:26 | 53.71419 | 10.11461 | 5972 ft | 312 kts | 118° |
| 2026-04-22 18:26 | 53.70349 | 10.14623 | 6428 ft | 313 kts | 116° |
| 2026-04-22 18:26 | 53.69208 | 10.17748 | 6883 ft | 316 kts | 126° |
| 2026-04-22 18:26 | 53.67600 | 10.20314 | 7319 ft | 321 kts | 144° |
| 2026-04-22 18:27 | 53.65563 | 10.21922 | 7781 ft | 325 kts | 163° |
| 2026-04-22 18:27 | 53.63380 | 10.22919 | 8236 ft | 327 kts | 164° |
| 2026-04-22 18:27 | 53.61166 | 10.23918 | 8695 ft | 329 kts | 164° |
| 2026-04-22 18:27 | 53.58966 | 10.24911 | 9168 ft | 331 kts | 164° |
| 2026-04-22 18:28 | 53.56733 | 10.25922 | 9630 ft | 333 kts | 163° |
| 2026-04-22 18:28 | 53.54487 | 10.26946 | 10119 ft | 336 kts | 163° |
| 2026-04-22 18:28 | 53.52209 | 10.27992 | 10840 ft | 341 kts | 163° |
| 2026-04-22 18:28 | 53.49923 | 10.29045 | 11283 ft | 341 kts | 163° |
| 2026-04-22 18:29 | 53.47592 | 10.30117 | 11736 ft | 355 kts | 163° |
| 2026-04-22 18:29 | 53.45193 | 10.31215 | 12187 ft | 366 kts | 163° |
| 2026-04-22 18:29 | 53.42687 | 10.32355 | 12660 ft | 378 kts | 163° |
| 2026-04-22 18:29 | 53.40109 | 10.33521 | 13153 ft | 388 kts | 163° |
| 2026-04-22 18:30 | 53.37461 | 10.34711 | 13622 ft | 396 kts | 163° |
| 2026-04-22 18:30 | 53.32021 | 10.37150 | 14553 ft | 410 kts | 163° |
| 2026-04-22 18:30 | 53.29261 | 10.38390 | 14992 ft | 416 kts | 163° |
| 2026-04-22 18:31 | 53.26452 | 10.39651 | 15439 ft | 421 kts | 163° |
| 2026-04-22 18:31 | 53.23602 | 10.40926 | 15891 ft | 425 kts | 163° |
| 2026-04-22 18:31 | 53.20729 | 10.42204 | 16353 ft | 429 kts | 163° |
| 2026-04-22 18:31 | 53.17828 | 10.43493 | 16812 ft | 432 kts | 163° |
| 2026-04-22 18:32 | 53.14948 | 10.44774 | 17272 ft | 435 kts | 163° |
| 2026-04-22 18:32 | 53.12000 | 10.46049 | 17754 ft | 438 kts | 165° |
| 2026-04-22 18:32 | 53.09001 | 10.47155 | 18243 ft | 441 kts | 167° |
| 2026-04-22 18:32 | 53.05980 | 10.48106 | 18719 ft | 443 kts | 168° |
| 2026-04-22 18:33 | 53.02964 | 10.48964 | 19147 ft | 444 kts | 169° |
| 2026-04-22 18:33 | 52.99904 | 10.49814 | 19582 ft | 445 kts | 169° |
| 2026-04-22 18:33 | 52.96835 | 10.50684 | 20024 ft | 446 kts | 168° |
| 2026-04-22 18:33 | 52.93798 | 10.51580 | 20387 ft | 449 kts | 168° |
| 2026-04-22 18:34 | 52.90693 | 10.52529 | 20827 ft | 449 kts | 167° |
| 2026-04-22 18:34 | 52.87637 | 10.53487 | 21285 ft | 448 kts | 167° |
| 2026-04-22 18:34 | 52.84576 | 10.54454 | 21758 ft | 448 kts | 167° |
| 2026-04-22 18:34 | 52.81508 | 10.55418 | 22223 ft | 448 kts | 167° |
| 2026-04-22 18:35 | 52.78441 | 10.56374 | 22711 ft | 447 kts | 167° |
| 2026-04-22 18:35 | 52.75418 | 10.57307 | 23200 ft | 447 kts | 167° |
| 2026-04-22 18:35 | 52.72358 | 10.58243 | 23695 ft | 446 kts | 167° |
| 2026-04-22 18:35 | 52.69308 | 10.59170 | 24163 ft | 445 kts | 167° |
| 2026-04-22 18:36 | 52.66272 | 10.60093 | 24591 ft | 444 kts | 167° |
| 2026-04-22 18:36 | 52.63234 | 10.61020 | 25030 ft | 443 kts | 166° |
| 2026-04-22 18:36 | 52.60186 | 10.61951 | 25465 ft | 442 kts | 166° |
| 2026-04-22 18:36 | 52.57176 | 10.62874 | 25913 ft | 440 kts | 166° |
| 2026-04-22 18:37 | 52.54196 | 10.63789 | 26362 ft | 439 kts | 166° |
| 2026-04-22 18:37 | 52.51197 | 10.64707 | 26827 ft | 437 kts | 166° |
| 2026-04-22 18:37 | 52.48203 | 10.65615 | 27301 ft | 436 kts | 166° |
| 2026-04-22 18:37 | 52.45231 | 10.66509 | 27777 ft | 434 kts | 166° |
| 2026-04-22 18:38 | 52.42283 | 10.67396 | 28271 ft | 432 kts | 165° |
| 2026-04-22 18:38 | 52.39327 | 10.68286 | 28754 ft | 430 kts | 165° |
| 2026-04-22 18:38 | 52.36400 | 10.69167 | 29257 ft | 428 kts | 165° |
| 2026-04-22 18:39 | 52.30547 | 10.70924 | 29961 ft | 430 kts | 165° |
| 2026-04-22 18:39 | 52.27581 | 10.71820 | 29998 ft | 438 kts | 165° |
| 2026-04-22 18:39 | 52.21461 | 10.73670 | 29991 ft | 453 kts | 165° |
| 2026-04-22 18:40 | 52.15207 | 10.75545 | 29988 ft | 464 kts | 165° |
| 2026-04-22 18:40 | 52.08847 | 10.77441 | 29995 ft | 465 kts | 165° |
| 2026-04-22 18:41 | 52.02447 | 10.79327 | 30017 ft | 465 kts | 165° |
| 2026-04-22 18:41 | 51.96096 | 10.81207 | 30007 ft | 466 kts | 165° |
| 2026-04-22 18:42 | 51.89751 | 10.83094 | 29998 ft | 467 kts | 165° |
| 2026-04-22 18:42 | 51.83360 | 10.84973 | 29997 ft | 467 kts | 165° |
| 2026-04-22 18:43 | 51.76953 | 10.86850 | 30006 ft | 467 kts | 165° |
| 2026-04-22 18:43 | 51.70586 | 10.88712 | 29999 ft | 466 kts | 165° |
| 2026-04-22 18:44 | 51.64486 | 10.91920 | 29994 ft | 456 kts | 149° |
| 2026-04-22 18:44 | 51.58783 | 10.96471 | 29990 ft | 456 kts | 149° |
| 2026-04-22 18:45 | 51.53115 | 11.00936 | 29989 ft | 457 kts | 150° |
| 2026-04-22 18:45 | 51.47394 | 11.05410 | 30003 ft | 456 kts | 150° |
| 2026-04-22 18:46 | 51.42112 | 11.09541 | 30006 ft | 456 kts | 149° |
| 2026-04-22 18:46 | 51.36443 | 11.13988 | 29998 ft | 456 kts | 149° |
| 2026-04-22 18:47 | 51.30761 | 11.18423 | 29992 ft | 455 kts | 149° |
| 2026-04-22 18:47 | 51.25041 | 11.22866 | 30006 ft | 455 kts | 149° |
| 2026-04-22 18:48 | 51.19331 | 11.27288 | 29999 ft | 455 kts | 149° |
| 2026-04-22 18:48 | 51.13657 | 11.31670 | 29994 ft | 455 kts | 149° |
| 2026-04-22 18:49 | 51.07963 | 11.36060 | 30079 ft | 456 kts | 149° |
| 2026-04-22 18:49 | 51.05121 | 11.38250 | 30316 ft | 456 kts | 149° |
| 2026-04-22 18:49 | 51.02261 | 11.40447 | 30351 ft | 454 kts | 149° |
| 2026-04-22 18:50 | 50.96594 | 11.44795 | 30352 ft | 453 kts | 149° |
| 2026-04-22 18:50 | 50.90915 | 11.49153 | 30352 ft | 453 kts | 149° |
| 2026-04-22 18:51 | 50.85229 | 11.53492 | 30349 ft | 453 kts | 149° |
| 2026-04-22 18:51 | 50.79555 | 11.57804 | 30349 ft | 453 kts | 149° |
| 2026-04-22 18:52 | 50.73849 | 11.62125 | 30361 ft | 454 kts | 149° |
| 2026-04-22 18:52 | 50.68165 | 11.66421 | 30343 ft | 454 kts | 149° |
| 2026-04-22 18:53 | 50.62419 | 11.70754 | 30341 ft | 455 kts | 149° |
| 2026-04-22 18:53 | 50.56727 | 11.75036 | 30344 ft | 454 kts | 149° |
| 2026-04-22 18:54 | 50.51033 | 11.79305 | 30346 ft | 454 kts | 149° |
| 2026-04-22 18:54 | 50.45336 | 11.83557 | 30342 ft | 454 kts | 150° |
| 2026-04-22 18:55 | 50.39580 | 11.87548 | 30334 ft | 455 kts | 152° |
| 2026-04-22 18:55 | 50.33758 | 11.91380 | 30335 ft | 455 kts | 152° |
| 2026-04-22 18:56 | 50.27925 | 11.95242 | 30328 ft | 454 kts | 152° |
| 2026-04-22 18:56 | 50.22103 | 11.99158 | 30330 ft | 455 kts | 152° |
| 2026-04-22 18:57 | 50.16313 | 12.03070 | 30348 ft | 455 kts | 151° |
| 2026-04-22 18:57 | 50.10516 | 12.06964 | 30353 ft | 454 kts | 152° |
| 2026-04-22 18:58 | 50.04682 | 12.10865 | 30353 ft | 454 kts | 152° |
| 2026-04-22 18:58 | 49.98885 | 12.14727 | 30362 ft | 454 kts | 152° |
| 2026-04-22 18:59 | 49.93096 | 12.18574 | 30344 ft | 455 kts | 152° |
| 2026-04-22 18:59 | 49.87270 | 12.22428 | 30329 ft | 455 kts | 152° |
| 2026-04-22 19:00 | 49.81476 | 12.26253 | 30338 ft | 455 kts | 152° |
| 2026-04-22 19:00 | 49.78549 | 12.28187 | 29890 ft | 452 kts | 152° |
| 2026-04-22 19:00 | 49.75624 | 12.30037 | 29483 ft | 457 kts | 157° |
| 2026-04-22 19:01 | 49.72487 | 12.30989 | 29058 ft | 468 kts | 168° |
| 2026-04-22 19:01 | 49.69249 | 12.31641 | 28638 ft | 468 kts | 167° |
| 2026-04-22 19:01 | 49.66021 | 12.32326 | 28222 ft | 467 kts | 167° |
| 2026-04-22 19:01 | 49.62819 | 12.33011 | 27812 ft | 456 kts | 167° |
| 2026-04-22 19:02 | 49.59721 | 12.33672 | 27400 ft | 444 kts | 167° |
| 2026-04-22 19:02 | 49.56720 | 12.34312 | 27008 ft | 437 kts | 167° |
| 2026-04-22 19:02 | 49.53710 | 12.34960 | 26623 ft | 434 kts | 167° |
| 2026-04-22 19:02 | 49.50725 | 12.35616 | 26250 ft | 434 kts | 167° |
| 2026-04-22 19:03 | 49.47747 | 12.36321 | 25856 ft | 431 kts | 165° |
| 2026-04-22 19:03 | 49.44838 | 12.37380 | 25479 ft | 427 kts | 159° |
| 2026-04-22 19:03 | 49.42011 | 12.38642 | 25115 ft | 425 kts | 159° |
| 2026-04-22 19:03 | 49.39149 | 12.39949 | 24738 ft | 424 kts | 159° |
| 2026-04-22 19:04 | 49.36346 | 12.41210 | 24384 ft | 423 kts | 160° |
| 2026-04-22 19:04 | 49.33502 | 12.42418 | 24026 ft | 423 kts | 160° |
| 2026-04-22 19:04 | 49.30661 | 12.43575 | 23631 ft | 422 kts | 161° |
| 2026-04-22 19:04 | 49.27806 | 12.44715 | 23216 ft | 420 kts | 161° |
| 2026-04-22 19:05 | 49.24985 | 12.45839 | 22797 ft | 419 kts | 161° |
| 2026-04-22 19:05 | 49.22204 | 12.46955 | 22391 ft | 417 kts | 161° |
| 2026-04-22 19:05 | 49.19397 | 12.48090 | 21974 ft | 415 kts | 161° |
| 2026-04-22 19:05 | 49.16608 | 12.49229 | 21597 ft | 414 kts | 161° |
| 2026-04-22 19:06 | 49.13826 | 12.50374 | 21202 ft | 412 kts | 161° |
| 2026-04-22 19:06 | 49.11087 | 12.51503 | 20823 ft | 410 kts | 161° |
| 2026-04-22 19:06 | 49.08317 | 12.52639 | 20434 ft | 408 kts | 161° |
| 2026-04-22 19:07 | 49.02867 | 12.54864 | 20305 ft | 408 kts | 161° |
| 2026-04-22 19:07 | 49.00122 | 12.55979 | 20031 ft | 407 kts | 161° |
| 2026-04-22 19:07 | 48.97376 | 12.57079 | 19657 ft | 406 kts | 162° |
| 2026-04-22 19:07 | 48.94635 | 12.58054 | 19290 ft | 405 kts | 164° |
| 2026-04-22 19:08 | 48.91874 | 12.58932 | 18919 ft | 404 kts | 165° |
| 2026-04-22 19:08 | 48.89098 | 12.59761 | 18542 ft | 403 kts | 166° |
| 2026-04-22 19:08 | 48.86359 | 12.60565 | 18133 ft | 401 kts | 166° |
| 2026-04-22 19:08 | 48.83628 | 12.61376 | 17731 ft | 398 kts | 165° |
| 2026-04-22 19:09 | 48.80935 | 12.62191 | 17340 ft | 396 kts | 165° |
| 2026-04-22 19:09 | 48.78245 | 12.63020 | 16937 ft | 392 kts | 165° |
| 2026-04-22 19:09 | 48.76453 | 12.63579 | 16670 ft | 388 kts | 165° |
| 2026-04-22 19:09 | 48.72978 | 12.64677 | 16149 ft | 380 kts | 165° |
| 2026-04-22 19:10 | 48.70430 | 12.65482 | 15769 ft | 375 kts | 165° |
| 2026-04-22 19:10 | 48.67888 | 12.66279 | 15390 ft | 370 kts | 165° |
| 2026-04-22 19:10 | 48.65376 | 12.67058 | 15019 ft | 366 kts | 165° |
| 2026-04-22 19:10 | 48.62894 | 12.67826 | 14653 ft | 361 kts | 165° |
| 2026-04-22 19:11 | 48.60446 | 12.68581 | 14280 ft | 357 kts | 165° |
| 2026-04-22 19:11 | 48.58016 | 12.69330 | 13899 ft | 355 kts | 165° |
| 2026-04-22 19:11 | 48.56417 | 12.69825 | 13622 ft | 353 kts | 165° |
| 2026-04-22 19:11 | 48.54004 | 12.70573 | 13223 ft | 350 kts | 165° |
| 2026-04-22 19:12 | 48.51628 | 12.71310 | 12822 ft | 348 kts | 165° |
| 2026-04-22 19:12 | 48.48505 | 12.72273 | 12297 ft | 343 kts | 165° |
| 2026-04-22 19:12 | 48.46928 | 12.72755 | 12034 ft | 341 kts | 165° |
| 2026-04-22 19:12 | 48.44623 | 12.73460 | 11699 ft | 336 kts | 165° |
| 2026-04-22 19:13 | 48.42347 | 12.74158 | 11321 ft | 333 kts | 165° |
| 2026-04-22 19:13 | 48.40093 | 12.74876 | 10929 ft | 329 kts | 165° |
| 2026-04-22 19:13 | 48.37893 | 12.75613 | 10567 ft | 326 kts | 164° |
| 2026-04-22 19:13 | 48.35687 | 12.76365 | 10204 ft | 323 kts | 164° |
| 2026-04-22 19:14 | 48.33497 | 12.77112 | 9804 ft | 320 kts | 165° |
| 2026-04-22 19:14 | 48.31334 | 12.77844 | 9400 ft | 317 kts | 165° |
| 2026-04-22 19:14 | 48.29198 | 12.78563 | 9005 ft | 314 kts | 165° |
| 2026-04-22 19:14 | 48.27084 | 12.79271 | 8646 ft | 310 kts | 165° |
| 2026-04-22 19:15 | 48.24981 | 12.79972 | 8252 ft | 307 kts | 165° |
| 2026-04-22 19:15 | 48.22907 | 12.80666 | 7874 ft | 304 kts | 165° |
| 2026-04-22 19:15 | 48.20851 | 12.81355 | 7486 ft | 301 kts | 165° |
| 2026-04-22 19:15 | 48.18817 | 12.82033 | 7117 ft | 298 kts | 166° |
| 2026-04-22 19:16 | 48.16828 | 12.82697 | 6746 ft | 295 kts | 166° |
| 2026-04-22 19:16 | 48.14830 | 12.83362 | 6351 ft | 292 kts | 166° |
| 2026-04-22 19:16 | 48.12862 | 12.84015 | 5962 ft | 288 kts | 166° |
| 2026-04-22 19:16 | 48.10925 | 12.84657 | 5737 ft | 279 kts | 166° |
| 2026-04-22 19:17 | 48.09069 | 12.85273 | 5631 ft | 268 kts | 166° |
| 2026-04-22 19:17 | 48.07267 | 12.85874 | 5522 ft | 259 kts | 166° |
| 2026-04-22 19:17 | 48.05561 | 12.86442 | 5424 ft | 248 kts | 167° |
| 2026-04-22 19:17 | 48.03912 | 12.86986 | 5327 ft | 238 kts | 167° |
| 2026-04-22 19:18 | 48.02317 | 12.87511 | 5219 ft | 230 kts | 167° |
| 2026-04-22 19:18 | 48.00788 | 12.88018 | 5119 ft | 222 kts | 166° |
| 2026-04-22 19:18 | 47.99304 | 12.88512 | 5026 ft | 215 kts | 167° |
| 2026-04-22 19:18 | 47.97873 | 12.88987 | 5042 ft | 202 kts | 166° |
| 2026-04-22 19:19 | 47.96570 | 12.89552 | 4928 ft | 195 kts | 159° |
| 2026-04-22 19:19 | 47.95307 | 12.90280 | 4678 ft | 188 kts | 156° |
| 2026-04-22 19:19 | 47.94138 | 12.91007 | 4433 ft | 183 kts | 155° |
| 2026-04-22 19:19 | 47.92976 | 12.91743 | 4195 ft | 180 kts | 155° |
| 2026-04-22 19:20 | 47.91831 | 12.92470 | 3959 ft | 176 kts | 156° |
| 2026-04-22 19:20 | 47.90726 | 12.93172 | 3715 ft | 173 kts | 156° |
| 2026-04-22 19:20 | 47.89635 | 12.93865 | 3477 ft | 164 kts | 157° |
| 2026-04-22 19:20 | 47.88625 | 12.94506 | 3263 ft | 153 kts | 157° |
| 2026-04-22 19:21 | 47.87654 | 12.95123 | 3057 ft | 149 kts | 157° |
| 2026-04-22 19:21 | 47.86707 | 12.95723 | 2851 ft | 147 kts | 158° |
| 2026-04-22 19:21 | 47.85767 | 12.96319 | 2657 ft | 146 kts | 158° |
| 2026-04-22 19:21 | 47.84839 | 12.96919 | 2434 ft | 145 kts | 156° |
| 2026-04-22 19:22 | 47.83936 | 12.97516 | 2208 ft | 141 kts | 160° |
| 2026-04-22 19:22 | 47.83020 | 12.98091 | 2024 ft | 142 kts | 158° |
| 2026-04-22 19:22 | 47.82105 | 12.98660 | 1864 ft | 143 kts | 159° |
| 2026-04-22 19:22 | 47.81188 | 12.99233 | 1654 ft | 142 kts | 159° |
| 2026-04-22 19:23 | 47.80297 | 12.99792 | 1447 ft | 138 kts | 160° |
| 2026-04-22 19:23 | 47.79553 | 13.00252 | 1425 ft | 78 kts | 156° |
| 2026-04-22 19:23 | 47.79329 | 13.00397 | 1423 ft | 4 kts | 157° |
| 2026-04-22 19:23 | 47.79249 | 13.00444 | 1421 ft | 18 kts | 165° |
| 2026-04-22 19:24 | 47.79134 | 13.00447 | 1422 ft | 15 kts | 211° |
| 2026-04-22 19:24 | 47.79120 | 13.00352 | 1419 ft | 0 kts | 276° |
| 2026-04-22 19:25 | 47.79129 | 13.00281 | 1420 ft | 13 kts | 291° |
| 2026-04-22 19:25 | 47.79209 | 13.00206 | 1421 ft | 13 kts | 336° |
| 2026-04-22 19:26 | 47.79286 | 13.00158 | 1422 ft | 11 kts | 337° |
| 2026-04-22 19:26 | 47.79345 | 13.00107 | 1422 ft | 9 kts | 311° |
| 2026-04-22 19:26 | 47.79345 | 13.00024 | 1422 ft | 8 kts | 247° |
| 2026-04-22 19:26 | 47.79301 | 12.99947 | 1422 ft | 14 kts | 192° |
| 2026-04-22 19:27 | 47.79219 | 12.99987 | 1422 ft | 10 kts | 154° |
| 2026-04-22 19:27 | 47.79187 | 12.99957 | 1422 ft | 6 kts | 277° |
| 2026-04-22 19:27 | 47.79199 | 12.99907 | 1422 ft | 4 kts | 283° |
| 2026-04-22 19:27 | 47.79203 | 12.99881 | 1422 ft | 0 kts | 283° |